Flight Track Log - Related Links

Times and Time Zones

All times are in EDT time to prevent confusion due to time zone crossing. See the GLA170 flight status page for this flight to view local times or setup timezone preferences in your user account.

Time Position Orientation Groundspeed Altitude Reporting Facility
EDT Latitude Longitude Course Direction KTS MPH feet Rate Location/Type
Fri 08:36:00 PM 33.9333 -118.4500 179° South 165 190 2,000  Level Southern California TRACON
Fri 08:37:11 PM 33.8836 -118.4486 179° South 189 217 3,600 1,579 Climbing Los Angeles Center
Fri 08:38:13 PM 33.8208 -118.4486 180° South 190 219 5,500 1,645 Climbing Los Angeles Center
Fri 08:39:15 PM 33.7725 -118.4317 164° South 200 230 7,000 1,488 Climbing Los Angeles Center
Fri 08:40:18 PM 33.7425 -118.3808 125° Southeast 191 220 8,600 1,536 Climbing Los Angeles Center
Fri 08:41:20 PM 33.7303 -118.3158 103° East 193 222 10,200 1,403 Climbing Los Angeles Center
Fri 08:42:22 PM 33.7406 -118.2578 78° East 191 220 11,500 1,355 Climbing Los Angeles Center
Fri 08:43:24 PM 33.7517 -118.1989 77° East 185 213 13,000 1,306 Climbing Los Angeles Center
Fri 08:44:26 PM 33.7669 -118.1389 73° East 187 215 14,200 1,355 Climbing Los Angeles Center
Fri 08:45:28 PM 33.7808 -118.0614 78° East 199 229 15,800 1,355 Climbing Los Angeles Center
Fri 08:46:30 PM 33.7719 -117.9931 99° East 208 239 17,000 1,065 Climbing Los Angeles Center
Fri 08:47:32 PM 33.7714 -117.9236 91° East 210 242 18,000 968 Climbing Los Angeles Center
Fri 08:48:34 PM 33.7689 -117.8536 92° East 211 243 19,000 480 Climbing Los Angeles Center
Fri 08:49:37 PM 33.7608 -117.7764 97° East 232 267 19,000  Level Los Angeles Center
Fri 08:50:38 PM 33.7517 -117.6933 98° East 249 287 19,000  Level Los Angeles Center
Fri 08:51:40 PM 33.7419 -117.5894 96° East 260 299 19,000  Level Los Angeles Center
Fri 08:52:42 PM 33.7350 -117.4997 95° East 269 310 19,000  Level Los Angeles Center
Fri 08:53:44 PM 33.7272 -117.4122 96° East 266 306 19,000  Level Los Angeles Center
Fri 08:54:46 PM 33.7181 -117.3225 97° East 273 314 19,000  Level Los Angeles Center
Fri 08:55:48 PM 33.7075 -117.2350 98° East 268 308 19,000  Level Los Angeles Center
Fri 08:56:50 PM 33.7008 -117.1456 95° East 269 310 19,000  Level Los Angeles Center
Fri 08:58:04 PM 33.6886 -117.0414 98° East 264 304 19,000  Level Los Angeles Center
Fri 08:59:07 PM 33.6758 -116.9347 98° East 269 310 19,000  Level Los Angeles Center
Fri 09:00:08 PM 33.6689 -116.8414 95° East 263 303 19,000  Level Los Angeles Center
Fri 09:01:10 PM 33.6653 -116.7531 93° East 264 304 19,000  Level Los Angeles Center
Fri 09:02:12 PM 33.6617 -116.6625 93° East 269 310 19,000  Level Los Angeles Center
Fri 09:03:14 PM 33.6606 -116.5753 91° East 263 303 19,000  Level Los Angeles Center
Fri 09:04:16 PM 33.6567 -116.4906 93° East 256 295 19,000  Level Los Angeles Center
Fri 09:05:30 PM 33.6494 -116.4036 96° East 259 298 19,000  Level Los Angeles Center
Fri 09:06:32 PM 33.6411 -116.2997 95° East 261 300 19,000  Level Los Angeles Center
Fri 09:07:34 PM 33.6311 -116.1961 97° East 260 299 19,000  Level Los Angeles Center
Fri 09:08:36 PM 33.6603 -116.1242 64° Northeast 250 288 19,000  Level Los Angeles Center
Fri 09:09:38 PM 33.7033 -116.0597 51° Northeast 246 283 19,000  Level Los Angeles Center
Fri 09:10:40 PM 33.7461 -115.9983 50° Northeast 242 278 19,000  Level Los Angeles Center
Fri 09:11:42 PM 33.7919 -115.9347 49° Northeast 248 285 19,000  Level Los Angeles Center
Fri 09:12:43 PM 33.8331 -115.8678 54° Northeast 249 287 19,000  Level Los Angeles Center
Fri 09:13:45 PM 33.8775 -115.8014 51° Northeast 252 290 19,000  Level Los Angeles Center
Fri 09:14:47 PM 33.9367 -115.7267 46° Northeast 256 295 19,000  Level Los Angeles Center
Fri 09:15:49 PM 33.9867 -115.6667 45° Northeast 254 292 19,000  Level Los Angeles Center
Fri 09:16:51 PM 34.0322 -115.5992 51° Northeast 259 298 19,000  Level Los Angeles Center
Fri 09:18:04 PM 34.0767 -115.5297 52° Northeast 261 300 19,000  Level Los Angeles Center
Fri 09:19:07 PM 34.1361 -115.4528 47° Northeast 260 299 19,000  Level Los Angeles Center
Fri 09:20:08 PM 34.1886 -115.3956 42° Northeast 258 297 19,000  Level Los Angeles Center
Fri 09:21:10 PM 34.2403 -115.3147 52° Northeast 254 292 19,000  Level Los Angeles Center
Fri 09:22:12 PM 34.2772 -115.2419 58° Northeast 252 290 19,000  Level Los Angeles Center
Fri 09:23:14 PM 34.3139 -115.1708 58° Northeast 252 290 19,000  Level Los Angeles Center
Fri 09:24:15 PM 34.3578 -115.1047 51° Northeast 251 289 19,000  Level Los Angeles Center
Fri 09:25:17 PM 34.4072 -115.0406 47° Northeast 256 295 19,000  Level Los Angeles Center
Fri 09:26:19 PM 34.4542 -114.9744 49° Northeast 259 298 19,000  Level Los Angeles Center
Fri 09:27:20 PM 34.4983 -114.9081 51° Northeast 257 296 19,000  Level Los Angeles Center
Fri 09:28:22 PM 34.5456 -114.8269 55° Northeast 247 284 19,000  Level Los Angeles Center
Fri 09:29:23 PM 34.5786 -114.7708 54° Northeast 250 288 19,000  Level Los Angeles Center
Fri 09:30:26 PM 34.6419 -114.6994 43° Northeast 256 295 19,000 -629 Level Los Angeles Center
Fri 09:31:27 PM 34.6958 -114.6406 42° Northeast 258 297 17,700 -1,122 Descending Los Angeles Center
Fri 09:32:29 PM 34.7503 -114.5817 42° Northeast 261 300 16,700 -1,065 Descending Los Angeles Center
Fri 09:33:31 PM 34.8011 -114.5203 45° Northeast 259 298 15,500 -1,024 Descending Los Angeles Center
Fri 09:34:32 PM 34.8411 -114.4703 46° Northeast 257 296 14,600 -885 Descending Los Angeles Center

Login

Don't have an account? Register now (free) for customized features, flight alerts, and more!